Plant City, FL

7:07 AM EST on January 26, 2015 (GMT -0500)
APRSWXNET Plant City FL US | Change Station
CLOSE
Current Station
Personal Weather Station
Location: Plant City, FL
Elevation: 124 ft
Nearby Weather Stations
Active Advisory: Lake Wind Advisory

Elev 124 ft 28.04 °N, 82.12 °W | Updated 37 minutes ago

Rain
Rain
58 °F
Feels Like 58 °F
N
0
Wind Variable Wind from West
Gusts 5.0 mph

Today
High -- | Low -- °F
--% Chance of Precip.
Yesterday
High -- | Low -- °F
Precip. -- in
7:18 AM 6:04 PM
Waxing Crescent, 42% visible
Pressure 29.88 in
Visibility 7.0 miles
Clouds Mostly Cloudy 4500 ft
Overcast 8500 ft
Dew Point 56 °F
Humidity 92%
Rainfall -999.00 in
Snow Depth Not available.
UV 0 out of 12
Pollen 8.70 out of 12
Air Quality Not available.
Flu Activity Not available.
METAR KLAL 261151Z 28006KT 7SM BKN045 OVC085 15/14 A2988

More Conditions Fewer Conditions

Pressure 29.88 in
Visibility 7.0 miles
Clouds Mostly Cloudy 4500 ft
Overcast 8500 ft
Dew Point 56 °F
Humidity 92%
Rainfall -999.00 in
Snow Depth Not available.
UV 0 out of 12
Pollen 8.70 out of 12
Air Quality Not available.
Flu Activity Not available.
METAR KLAL 261151Z 28006KT 7SM BKN045 OVC085 15/14 A2988

More Conditions Fewer Conditions

10-Day Weather Forecast

Almanac

Astronomy

Jan. 26, 2015 Rise Set
Actual Time
Civil Twilight
Nautical Twilight
Astronomical Twilight
Moon
Length of Visible Light
Length of Day
Tomorrow will be .
, % of the Moon is Illuminated

Today's Extremes

State Highs State Lows

Community

WunderPhotos

Upload Photos

1,790,175 photos uploaded!

WunderBlogs® & News

Nearby

Air Quality

  Air Quality AQ Index Pollutant
Not available.

Snow Depth

Station Depth Elevation

Earthquake Activity

City Distance Mag. Time & Date
Minimum magnitude displayed is 2.5.

Coastal Water Temperatures

Place Temperature

Nearby Weather Stations